createdAt,value
2023-03-31T00:04:05.094Z,10.93
2023-03-31T00:09:11.603Z,10.89
2023-03-31T00:14:13.255Z,10.88
2023-03-31T00:19:18.329Z,10.85
2023-03-31T00:24:19.943Z,10.87
2023-03-31T00:29:21.426Z,10.78
2023-03-31T00:34:22.977Z,10.76
2023-03-31T00:39:24.766Z,10.68
2023-03-31T00:44:30.477Z,10.57
2023-03-31T00:49:47.880Z,10.46
2023-03-31T00:54:54.380Z,10.50
2023-03-31T01:00:01.673Z,10.42
2023-03-31T01:05:03.354Z,10.48
2023-03-31T01:10:05.309Z,10.45
2023-03-31T01:15:08.582Z,10.36
2023-03-31T01:20:34.809Z,10.37
2023-03-31T01:26:21.321Z,10.17
2023-03-31T01:31:48.767Z,10.26
2023-03-31T01:37:31.394Z,10.23
2023-03-31T01:42:39.379Z,10.28
2023-03-31T01:47:49.915Z,10.21
2023-03-31T01:53:05.137Z,10.28
2023-03-31T01:58:15.367Z,10.07
2023-03-31T02:03:22.565Z,10.09
2023-03-31T02:08:29.663Z,9.90
2023-03-31T02:13:34.568Z,9.88
2023-03-31T02:18:38.205Z,9.82
2023-03-31T02:23:40.001Z,9.93
2023-03-31T02:28:41.680Z,9.66
2023-03-31T02:33:43.207Z,9.60
2023-03-31T02:38:59.224Z,9.62
2023-03-31T02:44:01.542Z,9.70
2023-03-31T02:49:07.116Z,9.71
2023-03-31T02:54:18.008Z,9.62
2023-03-31T02:59:37.824Z,9.66
2023-03-31T03:05:02.198Z,9.68
2023-03-31T03:10:07.734Z,9.54
2023-03-31T03:15:22.612Z,9.58
2023-03-31T03:20:24.361Z,9.47
2023-03-31T03:25:26.233Z,9.41
2023-03-31T03:30:27.658Z,9.40
2023-03-31T03:35:29.181Z,9.23
2023-03-31T03:40:30.753Z,9.08
2023-03-31T03:45:32.204Z,9.06
2023-03-31T03:50:50.384Z,8.95
2023-03-31T03:55:51.797Z,8.86
2023-03-31T04:00:53.296Z,8.68
2023-03-31T04:05:54.736Z,8.65
2023-03-31T04:10:56.500Z,8.78
2023-03-31T04:15:58.012Z,8.80
2023-03-31T04:21:05.148Z,8.64
2023-03-31T04:26:09.082Z,8.47
2023-03-31T04:31:15.628Z,8.36
2023-03-31T04:36:19.891Z,8.30
2023-03-31T04:41:22.407Z,8.25
2023-03-31T04:46:24.083Z,8.21
2023-03-31T04:51:25.637Z,8.26
2023-03-31T04:56:27.339Z,8.24
2023-03-31T05:01:33.049Z,8.30
2023-03-31T05:06:34.638Z,8.43
2023-03-31T05:11:36.575Z,8.60
2023-03-31T05:16:38.096Z,8.67
2023-03-31T05:21:39.573Z,8.71
2023-03-31T05:26:41.850Z,8.72
2023-03-31T05:31:43.330Z,8.82
2023-03-31T05:36:44.888Z,8.88
2023-03-31T05:41:46.303Z,9.04
2023-03-31T05:46:47.757Z,9.17
2023-03-31T05:51:49.294Z,9.50
2023-03-31T05:56:50.805Z,9.47
2023-03-31T06:01:52.414Z,9.71
2023-03-31T06:06:54.119Z,9.93
2023-03-31T06:11:55.932Z,10.02
2023-03-31T06:16:58.156Z,10.28
2023-03-31T06:21:59.810Z,10.54
2023-03-31T06:27:01.370Z,10.59
2023-03-31T06:32:05.556Z,10.73
2023-03-31T06:37:07.069Z,10.77
2023-03-31T06:42:08.541Z,10.73
2023-03-31T06:47:09.965Z,11.06
2023-03-31T06:52:11.399Z,11.41
2023-03-31T06:57:13.093Z,11.68
2023-03-31T07:02:14.657Z,12.06
2023-03-31T07:07:16.573Z,12.20
2023-03-31T07:12:18.049Z,12.26
2023-03-31T07:17:19.527Z,12.25
2023-03-31T07:22:20.961Z,12.35
2023-03-31T07:27:24.837Z,12.50
2023-03-31T07:32:29.030Z,12.56
2023-03-31T07:37:38.178Z,12.59
2023-03-31T07:42:39.614Z,12.62
2023-03-31T07:47:41.250Z,12.71
2023-03-31T07:52:44.734Z,12.86
2023-03-31T07:57:47.887Z,12.80
2023-03-31T08:02:49.412Z,12.95
2023-03-31T08:07:51.352Z,13.24
2023-03-31T08:12:53.653Z,13.31
2023-03-31T08:17:55.299Z,13.17
2023-03-31T08:22:56.821Z,13.24
2023-03-31T08:27:58.280Z,13.39
2023-03-31T08:32:59.714Z,13.61
2023-03-31T08:38:02.241Z,13.68
2023-03-31T08:43:13.436Z,13.86
2023-03-31T08:48:22.261Z,13.84
2023-03-31T08:53:27.764Z,13.79
2023-03-31T08:58:44.445Z,14.03
2023-03-31T09:04:12.638Z,14.27
2023-03-31T09:09:32.428Z,14.47
2023-03-31T09:14:49.414Z,14.65
2023-03-31T09:20:07.941Z,14.84
2023-03-31T09:25:19.453Z,15.09
2023-03-31T09:30:26.957Z,15.14
2023-03-31T09:35:33.445Z,15.47
2023-03-31T09:40:35.434Z,15.12
2023-03-31T09:45:37.149Z,15.16
2023-03-31T09:50:47.654Z,14.76
2023-03-31T09:55:57.059Z,14.63
2023-03-31T10:01:06.381Z,14.50
2023-03-31T10:06:14.373Z,14.54
2023-03-31T10:11:16.224Z,14.46
2023-03-31T10:16:30.367Z,14.54
2023-03-31T10:21:37.311Z,14.62
2023-03-31T10:26:40.345Z,14.64
2023-03-31T10:31:41.940Z,14.75
2023-03-31T10:36:48.755Z,14.72
2023-03-31T10:41:53.803Z,14.81
2023-03-31T10:46:55.315Z,15.09
2023-03-31T10:51:59.365Z,15.11
2023-03-31T10:57:05.645Z,15.12
2023-03-31T11:02:35.900Z,15.45
2023-03-31T11:07:56.632Z,15.83
2023-03-31T11:13:18.351Z,16.19
2023-03-31T11:18:36.049Z,16.06
2023-03-31T11:23:47.450Z,15.75
2023-03-31T11:29:18.242Z,15.71
2023-03-31T11:34:39.052Z,16.36
2023-03-31T11:40:09.228Z,16.85
2023-03-31T11:45:18.640Z,16.52
2023-03-31T11:50:23.815Z,16.01
2023-03-31T11:55:28.341Z,15.78
2023-03-31T12:00:44.744Z,15.54
2023-03-31T12:05:50.867Z,15.69
2023-03-31T12:10:58.970Z,15.81
2023-03-31T12:16:14.031Z,15.87
2023-03-31T12:21:16.492Z,15.80
2023-03-31T12:26:25.105Z,15.64
2023-03-31T12:31:28.489Z,15.77
2023-03-31T12:37:10.706Z,15.72
2023-03-31T12:42:40.838Z,15.82
2023-03-31T12:48:11.580Z,15.93
2023-03-31T12:53:28.379Z,15.60
2023-03-31T12:58:32.921Z,15.13
2023-03-31T13:03:39.995Z,14.66
2023-03-31T13:08:52.130Z,14.79
2023-03-31T13:14:13.568Z,14.57
2023-03-31T13:19:29.261Z,14.58
2023-03-31T13:24:33.048Z,14.12
2023-03-31T13:29:44.585Z,13.93
2023-03-31T13:35:03.695Z,13.97
2023-03-31T13:40:26.152Z,13.98
2023-03-31T13:45:52.417Z,14.05
2023-03-31T13:51:09.219Z,14.04
2023-03-31T13:56:35.360Z,13.99
2023-03-31T14:01:44.551Z,13.81
2023-03-31T14:06:55.922Z,13.73
2023-03-31T14:12:01.138Z,13.69
2023-03-31T14:17:03.522Z,13.55
2023-03-31T14:22:37.765Z,13.53
2023-03-31T14:28:05.139Z,13.39
2023-03-31T14:33:25.144Z,13.34
2023-03-31T14:38:29.665Z,13.26
2023-03-31T14:43:34.217Z,13.20
2023-03-31T14:48:45.161Z,13.23
2023-03-31T14:53:46.729Z,13.28
2023-03-31T14:58:52.875Z,13.51
2023-03-31T15:03:55.436Z,13.64
2023-03-31T15:08:57.946Z,13.73
2023-03-31T15:14:04.943Z,13.70
2023-03-31T15:19:35.686Z,13.65
2023-03-31T15:24:37.369Z,13.57
2023-03-31T15:29:44.547Z,13.37
2023-03-31T15:34:46.700Z,13.50
2023-03-31T15:39:49.165Z,13.75
2023-03-31T15:45:17.484Z,13.60
2023-03-31T15:50:22.571Z,13.49
2023-03-31T15:55:23.907Z,13.33
2023-03-31T16:00:47.867Z,13.61
2023-03-31T16:05:58.138Z,13.56
2023-03-31T16:11:07.364Z,13.54
2023-03-31T16:16:12.274Z,13.42
2023-03-31T16:21:16.280Z,13.34
2023-03-31T16:26:22.935Z,13.20
2023-03-31T16:31:37.117Z,13.20
2023-03-31T16:36:38.795Z,13.29
2023-03-31T16:41:40.284Z,13.42
2023-03-31T16:46:41.744Z,13.46
2023-03-31T16:51:43.202Z,13.41
2023-03-31T16:56:44.752Z,13.45
2023-03-31T17:01:46.297Z,13.43
2023-03-31T17:06:47.760Z,13.24
2023-03-31T17:11:49.831Z,13.14
2023-03-31T17:16:51.332Z,13.07
2023-03-31T17:21:52.813Z,12.93
2023-03-31T17:26:54.238Z,12.86
2023-03-31T17:31:55.760Z,12.77
2023-03-31T17:36:57.360Z,12.63
2023-03-31T17:41:59.328Z,12.69
2023-03-31T17:47:01.219Z,12.62
2023-03-31T17:52:02.749Z,12.54
2023-03-31T17:57:04.209Z,12.51
2023-03-31T18:02:05.784Z,12.32
2023-03-31T18:07:07.510Z,12.18
2023-03-31T18:12:09.680Z,12.13
2023-03-31T18:17:14.790Z,12.08
2023-03-31T18:22:16.303Z,12.13
2023-03-31T18:27:18.405Z,12.32
2023-03-31T18:32:20.242Z,12.44
2023-03-31T18:37:22.326Z,12.42
2023-03-31T18:42:25.737Z,12.35
2023-03-31T18:47:27.257Z,12.16
2023-03-31T18:52:29.068Z,12.17
2023-03-31T18:57:30.796Z,12.21
2023-03-31T19:02:32.350Z,12.04
2023-03-31T19:07:34.195Z,12.05
2023-03-31T19:12:35.625Z,11.91
2023-03-31T19:17:37.111Z,12.09
2023-03-31T19:22:38.615Z,11.93
2023-03-31T19:27:41.280Z,11.78
2023-03-31T19:32:42.898Z,11.69
2023-03-31T19:37:45.142Z,11.72
2023-03-31T19:42:46.574Z,11.74
2023-03-31T19:47:48.264Z,11.71
2023-03-31T19:52:50.064Z,11.61
2023-03-31T19:57:51.701Z,11.65
2023-03-31T20:02:53.283Z,11.56
2023-03-31T20:07:54.767Z,11.55
2023-03-31T20:12:56.704Z,11.63
2023-03-31T20:17:58.331Z,11.61
2023-03-31T20:22:59.882Z,11.42
2023-03-31T20:28:01.650Z,11.57
2023-03-31T20:33:03.137Z,11.42
2023-03-31T20:38:04.989Z,11.26
2023-03-31T20:43:06.541Z,11.24
2023-03-31T20:48:08.446Z,11.10
2023-03-31T20:53:09.869Z,11.24
2023-03-31T20:58:11.275Z,11.09
2023-03-31T21:03:12.747Z,11.08
2023-03-31T21:08:14.177Z,11.00
2023-03-31T21:13:16.470Z,10.91
2023-03-31T21:18:17.922Z,10.86
2023-03-31T21:23:20.518Z,10.94
2023-03-31T21:28:25.311Z,10.81
2023-03-31T21:33:27.121Z,10.90
2023-03-31T21:38:28.639Z,10.73
2023-03-31T21:43:30.132Z,10.65
2023-03-31T21:48:31.830Z,10.76
2023-03-31T21:53:33.251Z,10.70
2023-03-31T21:58:34.839Z,10.69
2023-03-31T22:03:38.356Z,10.66
2023-03-31T22:08:40.611Z,10.67
2023-03-31T22:13:42.291Z,10.82
2023-03-31T22:18:44.300Z,10.68
2023-03-31T22:23:46.014Z,10.64
2023-03-31T22:28:48.279Z,10.60
2023-03-31T22:33:49.989Z,10.65
2023-03-31T22:38:51.420Z,10.52
2023-03-31T22:43:52.892Z,10.34
2023-03-31T22:48:54.387Z,10.35
2023-03-31T22:53:56.158Z,10.30
2023-03-31T22:58:58.481Z,10.27
2023-03-31T23:04:01.023Z,10.23
2023-03-31T23:09:02.501Z,10.35
2023-03-31T23:14:04.664Z,10.28
2023-03-31T23:19:06.224Z,10.19
2023-03-31T23:24:07.688Z,10.32
2023-03-31T23:29:09.135Z,10.44
2023-03-31T23:34:11.365Z,10.44
2023-03-31T23:39:12.812Z,10.42
2023-03-31T23:44:14.402Z,10.39
2023-03-31T23:49:16.157Z,10.39
2023-03-31T23:54:17.759Z,10.36
2023-03-31T23:59:19.203Z,10.39
